Skip Navigation LinksHome page > Tools > METAR decoder Skip Navigation Links

METAR decoder

Settings

METAR

Chicago O'Hare Intl, Chicago

For information only: do not use for flight planning or navigation.
Latest weather
Observation time Tuesday, September 28, 2021 3:51 AM CDT
Local time Tuesday, September 28, 2021 4:49 AM CDT
Flight conditions Visual Meteorological Conditions
Winds
Wind direction North-Northeast (30°)
Wind speed 10 mph
Visibility 10 mi.
Sky condition
Ceiling unlimited
Sky clear
Temperature 62°F
Dewpoint 57°F
Altimeter 29.93 in.Hg
Pressure change last 3 hours-0.02 in.Hg
Pressure rising more quickly
Derived measurements
Relative humidity 84%
Density altitude 1079 ft.
Sea-level pressure 29.92 in.Hg
Remarks
Automated weather observing station with precipitation discriminator.
METAR KORD 280851Z 03009KT 10SM CLR 17/14 A2993 RMK AO2 SLP131 T01670139 53006

InnerDrive.Weather 4.0.6770.0 Release CLR 4.0.30319.42000
Copyright ©2018 Inner Drive Technology. All rights reserved. Portions Copyright ©1986-2018 David Braverman.

Find weather

Site navigation


Skip Navigation Links

Place info

Page info

PayPal - The safer, easier way to pay online!

Return home.

Copyright ©2021 Inner Drive Technology. Purveyors of fine, hand-crafted computer software. Page printed 2021-09-28T09:49:16 UTC.